Time;durP1;ratioP1;P1;durP2;ratioP2;P2;SDS_P1;SDS_P2;PMS_P1;PMS_P2;Temp;Humidity;BMP_temperature;BMP_pressure;BME280_temperature;BME280_humidity;BME280_pressure;Samples;Min_cycle;Max_cycle;Signal;HPM_P1;HPM_P2
2021/10/11 00:01:24;;;;;;;23.37;17.83;;;7.30;99.90;;;;;;5114643;27;20568;-53
2021/10/11 00:03:53;;;;;;;21.83;18.20;;;7.20;99.90;;;;;;5118461;28;20506;-54
2021/10/11 00:06:19;;;;;;;25.10;19.37;;;7.10;1.00;;;;;;5118443;28;20463;-51
2021/10/11 00:08:46;;;;;;;24.47;19.50;;;7.00;18.80;;;;;;5123605;27;20488;-52
2021/10/11 00:11:16;;;;;;;22.87;18.30;;;6.90;99.90;;;;;;5138982;27;20931;-53
2021/10/11 00:13:43;;;;;;;27.37;20.03;;;6.90;99.90;;;;;;5139012;27;20985;-48
2021/10/11 00:16:10;;;;;;;22.37;19.10;;;6.90;1.00;;;;;;5138826;27;20475;-49
2021/10/11 00:18:37;;;;;;;26.83;19.87;;;6.80;1.00;;;;;;5137326;27;20450;-50
2021/10/11 00:21:05;;;;;;;21.90;18.27;;;6.80;1.00;;;;;;5137230;27;20888;-50
2021/10/11 00:23:32;;;;;;;26.13;19.37;;;6.70;1.00;;;;;;5137763;27;20925;-53
2021/10/11 00:25:59;;;;;;;23.83;19.00;;;6.60;1.00;;;;;;5138118;27;20498;-53
2021/10/11 00:28:28;;;;;;;23.73;18.10;;;6.50;99.90;;;;;;5137688;27;20946;-53
2021/10/11 00:30:58;;;;;;;26.10;19.10;;;6.50;99.90;;;;;;5138072;27;20462;-53
2021/10/11 00:33:24;;;;;;;26.00;19.47;;;6.50;44.20;;;;;;5137615;27;20469;-52
2021/10/11 00:35:51;;;;;;;23.87;18.87;;;6.50;1.00;;;;;;5138392;27;20817;-50
2021/10/11 00:38:20;;;;;;;25.63;18.67;;;6.40;99.90;;;;;;5137658;27;20505;-53
2021/10/11 00:40:47;;;;;;;25.30;18.57;;;6.50;99.90;;;;;;5137956;27;20494;-51
2021/10/11 00:43:14;;;;;;;23.30;18.40;;;6.50;1.00;;;;;;5138498;27;20429;-51
2021/10/11 00:45:41;;;;;;;25.50;20.40;;;6.70;99.90;;;;;;5138333;27;20793;-51
2021/10/11 00:48:08;;;;;;;26.30;20.40;;;6.80;99.90;;;;;;5138247;27;20474;-54
2021/10/11 00:50:38;;;;;;;27.83;19.43;;;6.80;99.90;;;;;;5138338;27;20472;-57
2021/10/11 00:53:07;;;;;;;24.10;18.70;;;6.90;99.90;;;;;;5138377;27;20846;-56
2021/10/11 00:55:36;;;;;;;24.50;19.07;;;7.00;99.90;;;;;;5138546;27;20459;-56
2021/10/11 00:58:04;;;;;;;28.13;19.87;;;7.00;99.90;;;;;;5138739;27;20504;-50
2021/10/11 01:00:31;;;;;;;23.97;18.80;;;7.10;99.90;;;;;;5131458;27;20453;-54
2021/10/11 01:02:58;;;;;;;23.40;18.97;;;7.10;99.90;;;;;;5097214;28;20542;-53
2021/10/11 01:05:29;;;;;;;28.93;20.07;;;7.20;99.90;;;;;;5097408;28;20811;-55
2021/10/11 01:07:55;;;;;;;26.10;19.97;;;7.20;99.90;;;;;;5097718;28;20434;-50
2021/10/11 01:10:25;;;;;;;24.97;20.07;;;7.20;99.90;;;;;;5134755;27;20837;-56
2021/10/11 01:12:53;;;;;;;28.10;21.27;;;7.30;26.60;;;;;;5138103;27;20563;-53
2021/10/11 01:15:20;;;;;;;26.53;19.30;;;7.20;1.00;;;;;;5138411;27;20649;-54
2021/10/11 01:17:49;;;;;;;23.93;19.23;;;7.30;1.00;;;;;;5138442;27;20465;-54
2021/10/11 01:20:18;;;;;;;28.80;20.27;;;7.30;1.00;;;;;;5137667;27;20501;-51
2021/10/11 01:22:45;;;;;;;22.80;20.23;;;7.40;99.90;;;;;;5138457;27;20478;-50
2021/10/11 01:25:15;;;;;;;24.70;19.47;;;7.30;99.90;;;;;;5137930;28;20465;-52
2021/10/11 01:27:43;;;;;;;22.13;19.00;;;7.40;1.00;;;;;;5138482;28;20822;-57
2021/10/11 01:30:12;;;;;;;24.90;20.67;;;7.40;99.90;;;;;;5138145;28;20482;-49
2021/10/11 01:32:40;;;;;;;24.47;21.20;;;7.40;99.90;;;;;;5137899;28;20492;-53
2021/10/11 01:35:08;;;;;;;26.97;20.03;;;7.40;14.80;;;;;;5138024;28;20442;-51
2021/10/11 01:37:36;;;;;;;27.10;19.90;;;7.40;62.90;;;;;;5138022;28;20486;-53
2021/10/11 01:40:05;;;;;;;26.10;20.63;;;7.40;1.00;;;;;;5137950;28;20860;-54
2021/10/11 01:42:32;;;;;;;29.40;21.10;;;7.40;99.90;;;;;;5137757;28;20437;-54
2021/10/11 01:45:00;;;;;;;25.83;20.37;;;7.50;99.90;;;;;;5141176;27;20432;-55
2021/10/11 01:47:28;;;;;;;25.30;19.17;;;7.50;99.90;;;;;;5142129;27;20454;-56
2021/10/11 01:49:55;;;;;;;23.50;19.77;;;7.50;1.00;;;;;;5142070;27;20915;-49
2021/10/11 01:52:24;;;;;;;25.07;20.47;;;7.60;48.80;;;;;;5141716;27;20868;-52
2021/10/11 01:54:53;;;;;;;24.70;19.10;;;7.60;3.20;;;;;;5142014;27;20528;-54
2021/10/11 01:57:20;;;;;;;25.20;20.80;;;7.60;16.40;;;;;;5141949;27;20520;-53
2021/10/11 01:59:47;;;;;;;26.40;19.33;;;7.60;77.50;;;;;;5142180;27;20490;-52
2021/10/11 02:02:14;;;;;;;24.00;18.67;;;7.70;22.90;;;;;;5105142;27;20520;-53
2021/10/11 02:04:41;;;;;;;24.93;19.53;;;7.70;1.00;;;;;;5100881;28;20880;-51
2021/10/11 02:07:08;;;;;;;24.30;19.87;;;7.70;1.00;;;;;;5100808;28;20442;-52
2021/10/11 02:09:35;;;;;;;28.60;20.83;;;7.80;99.90;;;;;;5124813;27;20462;-57
2021/10/11 02:12:04;;;;;;;23.67;19.70;;;7.80;75.00;;;;;;5141659;27;20580;-51
2021/10/11 02:14:31;;;;;;;27.47;21.70;;;7.80;1.00;;;;;;5141631;27;20493;-54
2021/10/11 02:16:58;;;;;;;28.03;21.13;;;7.80;99.90;;;;;;5141477;27;20457;-55
2021/10/11 02:19:26;;;;;;;25.43;20.10;;;7.90;99.90;;;;;;5141456;27;20943;-53
2021/10/11 02:21:53;;;;;;;25.70;20.27;;;7.80;72.30;;;;;;5141505;27;20464;-53
2021/10/11 02:24:20;;;;;;;24.63;21.13;;;7.80;1.00;;;;;;5141442;27;20494;-57
2021/10/11 02:26:47;;;;;;;26.60;19.87;;;7.90;99.90;;;;;;5141057;27;20490;-54
2021/10/11 02:29:15;;;;;;;29.77;23.10;;;8.00;1.00;;;;;;5141721;27;20477;-50
2021/10/11 02:31:42;;;;;;;30.37;21.83;;;8.00;99.90;;;;;;5141103;27;20498;-57
2021/10/11 02:34:09;;;;;;;28.77;21.73;;;8.10;1.00;;;;;;5141364;27;20458;-51
2021/10/11 02:36:36;;;;;;;28.33;22.00;;;8.20;1.00;;;;;;5140909;27;20500;-53
2021/10/11 02:39:04;;;;;;;26.83;20.90;;;8.20;1.00;;;;;;5140993;27;20889;-54
2021/10/11 02:41:31;;;;;;;25.77;22.43;;;8.20;99.90;;;;;;5141310;27;20500;-54
2021/10/11 02:43:58;;;;;;;28.30;22.70;;;8.20;99.90;;;;;;5141106;27;20455;-56
2021/10/11 02:46:28;;;;;;;32.70;23.40;;;8.20;99.90;;;;;;5141209;27;20545;-56
2021/10/11 02:48:55;;;;;;;26.00;21.63;;;8.20;99.90;;;;;;5140673;27;20455;-52
2021/10/11 02:51:22;;;;;;;27.10;21.23;;;8.20;1.00;;;;;;5140828;27;20468;-58
2021/10/11 02:53:50;;;;;;;26.73;22.27;;;8.20;99.90;;;;;;5140755;27;20526;-58
2021/10/11 02:56:17;;;;;;;27.63;22.17;;;8.20;99.90;;;;;;5139572;27;20437;-58
2021/10/11 02:58:44;;;;;;;26.57;21.47;;;8.20;1.00;;;;;;5140614;27;20967;-56
2021/10/11 03:01:14;;;;;;;29.50;22.50;;;8.20;8.10;;;;;;5122402;27;20539;-57
2021/10/11 03:03:42;;;;;;;27.27;22.30;;;8.20;99.90;;;;;;5099894;28;20431;-58
2021/10/11 03:06:09;;;;;;;30.77;22.63;;;8.30;99.90;;;;;;5099960;28;20581;-60
2021/10/11 03:08:37;;;;;;;25.43;21.20;;;8.30;99.90;;;;;;5106951;27;20463;-60
2021/10/11 03:11:05;;;;;;;36.13;21.50;;;8.30;99.90;;;;;;5140449;27;20466;-61
2021/10/11 03:13:32;;;;;;;30.37;22.60;;;8.30;99.90;;;;;;5140719;27;20848;-61
2021/10/11 03:15:59;;;;;;;29.40;23.20;;;8.30;99.90;;;;;;5140634;27;20458;-60
2021/10/11 03:18:26;;;;;;;27.07;22.83;;;8.30;99.90;;;;;;5139931;27;20494;-60
2021/10/11 03:20:54;;;;;;;30.23;21.97;;;8.30;99.90;;;;;;5140233;27;20458;-59
2021/10/11 03:23:21;;;;;;;33.30;24.63;;;8.30;99.90;;;;;;5140264;27;20813;-58
2021/10/11 03:25:48;;;;;;;29.67;25.07;;;8.30;99.90;;;;;;5140195;27;20825;-53
2021/10/11 03:28:15;;;;;;;30.53;24.70;;;8.30;99.90;;;;;;5139899;27;20462;-53
2021/10/11 03:30:42;;;;;;;32.13;25.60;;;8.30;99.90;;;;;;5139754;27;20502;-51
2021/10/11 03:33:09;;;;;;;30.13;24.23;;;8.30;99.90;;;;;;5139816;27;20580;-52
2021/10/11 03:35:36;;;;;;;30.57;23.40;;;8.40;99.90;;;;;;5139954;27;20498;-53
2021/10/11 03:38:04;;;;;;;30.97;22.80;;;8.40;99.90;;;;;;5140073;27;20838;-53
2021/10/11 03:40:31;;;;;;;31.00;23.87;;;8.50;99.90;;;;;;5139436;27;20490;-57
2021/10/11 03:42:58;;;;;;;27.50;22.57;;;8.50;99.90;;;;;;5139771;27;20932;-55
2021/10/11 03:45:25;;;;;;;32.77;24.97;;;8.50;99.90;;;;;;5139859;27;20469;-58
2021/10/11 03:47:55;;;;;;;32.20;24.97;;;8.50;99.90;;;;;;5139718;27;20513;-58
2021/10/11 03:50:22;;;;;;;28.90;23.57;;;8.50;99.90;;;;;;5140032;27;20512;-59
2021/10/11 03:52:49;;;;;;;29.27;24.87;;;8.60;99.90;;;;;;5139470;27;20830;-59
2021/10/11 03:55:17;;;;;;;32.37;23.90;;;8.60;99.90;;;;;;5139610;27;20486;-59
2021/10/11 03:57:44;;;;;;;32.60;25.40;;;8.60;99.90;;;;;;5139926;27;20505;-59
2021/10/11 04:00:12;;;;;;;34.43;26.00;;;8.60;99.90;;;;;;5138625;27;20480;-59
2021/10/11 04:02:39;;;;;;;38.17;27.20;;;8.70;99.90;;;;;;5098084;28;20488;-59
2021/10/11 04:05:07;;;;;;;36.40;26.10;;;8.70;99.90;;;;;;5098423;28;20541;-59
2021/10/11 04:07:35;;;;;;;34.70;26.70;;;8.70;99.90;;;;;;5098308;28;20496;-60
2021/10/11 04:10:04;;;;;;;33.60;28.20;;;8.70;99.90;;;;;;5130247;27;20462;-59
2021/10/11 04:12:37;;;;;;;33.23;28.17;;;8.70;99.90;;;;;;5139012;27;20692;-59
2021/10/11 04:15:06;;;;;;;37.73;27.93;;;8.70;99.90;;;;;;5139222;27;20459;-59
2021/10/11 04:17:37;;;;;;;36.00;27.90;;;8.70;99.90;;;;;;5139106;27;20549;-59
2021/10/11 04:20:05;;;;;;;33.20;26.57;;;8.80;99.90;;;;;;5139288;27;20818;-59
2021/10/11 04:22:33;;;;;;;36.13;28.10;;;8.80;99.90;;;;;;5139125;27;20527;-59
2021/10/11 04:24:59;;;;;;;34.63;28.13;;;8.80;99.90;;;;;;5138935;27;20482;-57
2021/10/11 04:27:26;;;;;;;36.97;28.90;;;8.80;99.90;;;;;;5138943;27;20490;-58
2021/10/11 04:29:55;;;;;;;36.63;30.70;;;8.90;99.90;;;;;;5138914;27;20498;-59
2021/10/11 04:32:22;;;;;;;42.50;30.60;;;9.00;99.90;;;;;;5138376;27;20458;-58
2021/10/11 04:34:49;;;;;;;41.67;28.80;;;9.10;99.90;;;;;;5139021;27;20858;-58
2021/10/11 04:37:16;;;;;;;39.07;29.60;;;9.10;99.90;;;;;;5138692;27;20495;-59
2021/10/11 04:39:43;;;;;;;42.27;31.27;;;9.20;99.90;;;;;;5138944;27;20466;-60
2021/10/11 04:42:12;;;;;;;37.57;29.97;;;9.20;99.90;;;;;;5138807;27;20478;-59
2021/10/11 04:44:39;;;;;;;37.57;30.30;;;9.30;99.90;;;;;;5138540;27;20859;-60
2021/10/11 04:47:07;;;;;;;38.50;28.63;;;9.30;99.90;;;;;;5138768;27;20496;-60
2021/10/11 04:49:34;;;;;;;37.70;29.63;;;9.40;99.90;;;;;;5138610;27;20501;-59
2021/10/11 04:52:02;;;;;;;37.67;28.37;;;9.30;99.90;;;;;;5138552;27;20488;-60
2021/10/11 04:54:28;;;;;;;39.03;31.70;;;9.40;99.90;;;;;;5138142;27;20530;-60
2021/10/11 04:56:55;;;;;;;41.67;30.07;;;9.40;99.90;;;;;;5138405;27;20498;-60
2021/10/11 04:59:22;;;;;;;38.53;30.00;;;9.40;99.90;;;;;;5138325;27;20498;-60
2021/10/11 05:01:49;;;;;;;39.30;29.53;;;9.40;99.90;;;;;;5108909;27;20515;-60
2021/10/11 05:04:17;;;;;;;38.03;27.30;;;9.50;99.90;;;;;;5097249;28;20496;-60
2021/10/11 05:06:44;;;;;;;40.87;29.70;;;9.50;99.90;;;;;;5097074;28;20465;-60
2021/10/11 05:09:11;;;;;;;39.17;30.70;;;9.50;99.90;;;;;;5114753;27;20493;-60
2021/10/11 05:11:38;;;;;;;40.57;29.80;;;9.60;99.90;;;;;;5138435;27;20557;-60
2021/10/11 05:14:05;;;;;;;40.30;29.87;;;9.60;99.90;;;;;;5138256;27;20585;-60
2021/10/11 05:16:34;;;;;;;39.87;28.80;;;9.70;99.90;;;;;;5137982;27;20499;-59
2021/10/11 05:19:02;;;;;;;38.90;29.40;;;9.70;99.90;;;;;;5137797;27;20463;-60
2021/10/11 05:21:31;;;;;;;45.30;31.93;;;9.70;99.90;;;;;;5138221;27;20462;-60
2021/10/11 05:23:59;;;;;;;43.73;31.83;;;9.70;99.90;;;;;;5138186;27;20900;-60
2021/10/11 05:26:27;;;;;;;37.20;28.60;;;9.70;99.90;;;;;;5137898;28;20501;-59
2021/10/11 05:28:54;;;;;;;40.90;29.30;;;9.70;99.90;;;;;;5137731;28;20444;-59
2021/10/11 05:31:21;;;;;;;38.10;28.77;;;9.70;99.90;;;;;;5138194;28;20455;-60
2021/10/11 05:33:48;;;;;;;41.30;29.20;;;9.70;99.90;;;;;;5137926;28;20526;-60
2021/10/11 05:36:17;;;;;;;40.87;30.20;;;9.80;99.90;;;;;;5137742;28;20932;-59
2021/10/11 05:38:46;;;;;;;38.00;29.33;;;9.80;99.90;;;;;;5138247;28;20425;-60
2021/10/11 05:41:13;;;;;;;43.40;29.80;;;9.90;99.90;;;;;;5137903;28;20458;-60
2021/10/11 05:43:40;;;;;;;42.43;30.80;;;10.00;99.90;;;;;;5137957;28;20901;-60
2021/10/11 05:46:07;;;;;;;43.80;27.97;;;10.20;99.90;;;;;;5137998;28;20523;-61
2021/10/11 05:48:34;;;;;;;39.97;28.97;;;10.20;99.90;;;;;;5137605;28;20837;-61
2021/10/11 05:51:01;;;;;;;44.83;29.70;;;10.30;99.90;;;;;;5138098;28;20485;-60
2021/10/11 05:53:28;;;;;;;41.47;30.87;;;10.40;99.90;;;;;;5137646;28;20530;-61
2021/10/11 05:55:56;;;;;;;40.80;27.40;;;10.50;99.90;;;;;;5137918;28;20888;-61
2021/10/11 05:58:23;;;;;;;38.83;27.77;;;10.60;99.90;;;;;;5137556;28;20640;-60
2021/10/11 06:00:54;;;;;;;40.53;28.37;;;10.60;99.90;;;;;;5125486;28;20800;-60
2021/10/11 06:03:21;;;;;;;36.87;25.43;;;10.60;99.90;;;;;;5096539;28;20499;-60
2021/10/11 06:05:48;;;;;;;35.30;22.13;;;10.60;99.90;;;;;;5096902;28;20514;-60
2021/10/11 06:08:15;;;;;;;40.10;21.90;;;10.60;99.90;;;;;;5098072;28;20514;-61
2021/10/11 06:10:42;;;;;;;25.83;20.23;;;10.60;99.90;;;;;;5137567;28;20488;-61
2021/10/11 06:13:11;;;;;;;32.87;20.70;;;10.70;99.90;;;;;;5137312;28;20530;-62
2021/10/11 06:15:38;;;;;;;30.17;19.57;;;10.60;99.90;;;;;;5137794;28;20498;-62
2021/10/11 06:18:05;;;;;;;30.40;20.70;;;10.70;99.90;;;;;;5137955;28;20458;-62
2021/10/11 06:20:33;;;;;;;35.03;20.73;;;10.70;99.90;;;;;;5137731;28;20458;-62
2021/10/11 06:23:03;;;;;;;28.50;19.13;;;10.70;99.90;;;;;;5137298;28;20493;-62
2021/10/11 06:25:30;;;;;;;28.97;19.83;;;10.80;99.90;;;;;;5137427;28;20505;-62
2021/10/11 06:27:59;;;;;;;29.37;22.30;;;10.80;99.90;;;;;;5137508;28;20834;-62
2021/10/11 06:30:28;;;;;;;28.33;19.67;;;10.90;99.90;;;;;;5138605;27;20458;-62
2021/10/11 06:32:55;;;;;;;26.60;18.90;;;10.90;99.90;;;;;;5141003;27;20900;-62
2021/10/11 06:35:22;;;;;;;27.37;20.07;;;10.90;99.90;;;;;;5140959;27;20931;-62
2021/10/11 06:37:49;;;;;;;28.10;19.17;;;10.90;99.90;;;;;;5140460;27;20458;-62
2021/10/11 06:40:16;;;;;;;29.40;18.97;;;10.90;99.90;;;;;;5140623;27;20527;-62
2021/10/11 06:42:43;;;;;;;26.60;18.23;;;11.00;99.90;;;;;;5141129;27;20521;-62
2021/10/11 06:45:10;;;;;;;27.63;19.13;;;11.00;99.90;;;;;;5141078;27;20545;-62
2021/10/11 06:47:39;;;;;;;27.43;17.40;;;11.00;99.90;;;;;;5141134;27;20458;-62
2021/10/11 06:50:07;;;;;;;20.83;16.03;;;11.00;99.90;;;;;;5140949;27;20501;-62
2021/10/11 06:52:34;;;;;;;22.50;16.03;;;11.10;99.90;;;;;;5140694;27;20482;-62
2021/10/11 06:55:00;;;;;;;24.93;16.10;;;11.10;99.90;;;;;;5140987;27;20491;-62
2021/10/11 06:57:27;;;;;;;23.33;15.13;;;11.10;99.90;;;;;;5140638;27;20905;-62
2021/10/11 06:59:54;;;;;;;21.63;15.00;;;11.30;99.90;;;;;;5140784;27;20515;-62
2021/10/11 07:02:21;;;;;;;19.83;14.90;;;11.30;99.90;;;;;;5101227;27;20579;-62
2021/10/11 07:04:57;;;;;;;25.90;14.87;;;11.30;99.90;;;;;;5099494;28;20530;-62
2021/10/11 07:07:28;;;;;;;17.83;14.00;;;11.40;99.90;;;;;;5099893;28;20506;-62
2021/10/11 07:09:55;;;;;;;19.30;13.73;;;11.50;99.90;;;;;;5099543;28;20460;-62
2021/10/11 07:12:22;;;;;;;20.07;13.00;;;11.50;99.90;;;;;;5098483;28;20473;-62
2021/10/11 07:14:52;;;;;;;15.93;13.40;;;11.40;99.90;;;;;;5099307;28;20492;-62
2021/10/11 07:17:19;;;;;;;26.13;13.77;;;11.30;99.90;;;;;;5099364;28;20518;-62
2021/10/11 07:19:48;;;;;;;20.93;15.50;;;11.20;99.90;;;;;;5099485;28;20552;-62
2021/10/11 07:22:18;;;;;;;15.90;13.37;;;11.10;99.90;;;;;;5098808;28;20518;-62
2021/10/11 07:24:47;;;;;;;25.83;14.33;;;11.10;99.90;;;;;;5099449;28;20561;-62
2021/10/11 07:27:14;;;;;;;19.80;13.87;;;11.20;99.90;;;;;;5098722;28;20491;-62
2021/10/11 07:29:42;;;;;;;20.80;15.00;;;11.20;99.90;;;;;;5099211;28;20504;-62
2021/10/11 07:32:10;;;;;;;22.27;14.47;;;11.30;99.90;;;;;;5099268;28;20805;-62
2021/10/11 07:34:40;;;;;;;18.50;12.53;;;11.50;99.90;;;;;;5098574;28;20561;-62
2021/10/11 07:37:11;;;;;;;17.77;13.53;;;11.70;99.90;;;;;;5099099;28;20501;-62
2021/10/11 07:39:45;;;;;;;19.50;13.53;;;11.90;99.90;;;;;;5098787;28;20482;-62
2021/10/11 07:42:12;;;;;;;20.90;13.47;;;12.10;99.90;;;;;;5098756;28;20488;-62
2021/10/11 07:44:39;;;;;;;22.80;13.23;;;12.10;99.90;;;;;;5098999;28;20492;-62
2021/10/11 07:47:05;;;;;;;16.10;12.57;;;12.10;99.90;;;;;;5099106;28;20492;-62
2021/10/11 07:49:32;;;;;;;20.63;13.53;;;11.90;99.90;;;;;;5098758;28;20471;-62
2021/10/11 07:52:00;;;;;;;19.43;12.50;;;11.80;99.90;;;;;;5099103;28;20507;-62
2021/10/11 07:54:27;;;;;;;18.43;12.17;;;11.80;99.90;;;;;;5098372;28;20586;-62
2021/10/11 07:56:57;;;;;;;19.80;13.27;;;12.00;99.90;;;;;;5098165;28;20510;-62
2021/10/11 07:59:27;;;;;;;15.80;12.50;;;12.10;99.90;;;;;;5098585;28;20495;-62
2021/10/11 08:01:54;;;;;;;20.40;12.93;;;11.80;99.90;;;;;;5114950;27;20855;-61
2021/10/11 08:04:23;;;;;;;20.27;12.30;;;12.00;99.90;;;;;;5118371;28;20502;-61
2021/10/11 08:06:56;;;;;;;16.40;12.03;;;11.90;99.90;;;;;;5098625;28;20460;-61
2021/10/11 08:09:26;;;;;;;21.60;12.20;;;12.00;99.90;;;;;;5119208;27;20821;-61
2021/10/11 08:11:54;;;;;;;22.30;14.43;;;11.90;99.90;;;;;;5139376;27;20453;-61
2021/10/11 08:14:21;;;;;;;20.77;15.20;;;11.90;99.90;;;;;;5138597;27;20525;-61
2021/10/11 08:16:48;;;;;;;23.33;15.87;;;12.00;99.90;;;;;;5138931;27;20466;-61
2021/10/11 08:19:16;;;;;;;20.67;14.50;;;12.10;99.90;;;;;;5139126;27;20793;-61
2021/10/11 08:21:44;;;;;;;23.83;16.37;;;12.20;99.90;;;;;;5139267;27;20808;-61
2021/10/11 08:24:12;;;;;;;21.67;15.23;;;12.30;99.90;;;;;;5139174;27;20819;-61
2021/10/11 08:26:39;;;;;;;16.63;14.60;;;12.50;99.90;;;;;;5138575;27;20463;-61
2021/10/11 08:29:15;;;;;;;18.13;12.93;;;12.70;99.90;;;;;;5109665;28;20491;-62
2021/10/11 08:31:42;;;;;;;20.43;12.67;;;12.60;99.90;;;;;;5098064;28;20459;-62
2021/10/11 08:34:12;;;;;;;17.27;12.43;;;12.60;99.90;;;;;;5120154;27;20486;-62
2021/10/11 08:36:41;;;;;;;18.23;11.13;;;12.70;99.90;;;;;;5135494;27;20458;-62
2021/10/11 08:39:10;;;;;;;18.33;13.00;;;12.80;99.90;;;;;;5115080;27;20458;-62
2021/10/11 08:41:38;;;;;;;19.17;10.33;;;12.90;99.90;;;;;;5138425;27;20494;-62
2021/10/11 08:44:05;;;;;;;18.10;10.67;;;13.00;99.90;;;;;;5138138;27;20452;-62
2021/10/11 08:46:33;;;;;;;18.30;10.43;;;13.00;48.50;;;;;;5138492;27;20486;-62
2021/10/11 08:49:01;;;;;;;16.10;10.63;;;13.20;99.90;;;;;;5138831;27;20517;-62
2021/10/11 08:51:28;;;;;;;25.33;12.50;;;13.20;1.00;;;;;;5138586;27;20433;-62
2021/10/11 08:53:55;;;;;;;17.40;9.60;;;13.20;1.00;;;;;;5137950;27;20522;-62
2021/10/11 08:56:24;;;;;;;19.70;10.40;;;13.30;1.00;;;;;;5137801;27;20490;-60
2021/10/11 08:58:54;;;;;;;15.70;10.70;;;13.40;99.90;;;;;;5138075;27;20463;-60
2021/10/11 09:01:22;;;;;;;18.70;10.57;;;13.20;99.90;;;;;;5117443;27;20551;-60
2021/10/11 09:03:50;;;;;;;21.10;10.03;;;13.20;1.00;;;;;;5097015;28;20518;-60
2021/10/11 09:06:17;;;;;;;15.20;9.50;;;13.40;1.00;;;;;;5096327;28;20557;-58
2021/10/11 09:08:44;;;;;;;19.20;9.27;;;13.30;99.90;;;;;;5106695;27;20558;-60
2021/10/11 09:11:13;;;;;;;18.93;11.27;;;13.10;99.90;;;;;;5136990;27;20535;-59
2021/10/11 09:13:45;;;;;;;24.30;10.03;;;13.20;99.90;;;;;;5138437;27;20488;-59
2021/10/11 09:16:16;;;;;;;16.20;10.73;;;13.10;99.90;;;;;;5138316;27;20462;-57
2021/10/11 09:18:52;;;;;;;20.07;10.67;;;13.20;99.90;;;;;;5137745;27;20462;-58
2021/10/11 09:21:34;;;;;;;16.10;10.33;;;13.30;99.90;;;;;;5138176;27;20885;-59
2021/10/11 09:24:06;;;;;;;18.80;10.40;;;13.30;99.90;;;;;;5138111;27;20508;-59
2021/10/11 09:26:42;;;;;;;16.80;10.97;;;13.40;99.90;;;;;;5137881;27;20509;-59
2021/10/11 09:29:10;;;;;;;19.37;10.20;;;13.20;99.90;;;;;;5137237;28;20458;-55
2021/10/11 09:31:39;;;;;;;24.57;11.63;;;13.00;99.90;;;;;;5137985;28;20498;-56
2021/10/11 09:34:06;;;;;;;17.50;11.40;;;12.90;99.90;;;;;;5137894;28;20501;-58
2021/10/11 09:36:39;;;;;;;18.23;10.70;;;13.00;1.00;;;;;;5137733;28;20459;-57
2021/10/11 09:39:06;;;;;;;19.97;11.10;;;13.20;1.00;;;;;;5137767;28;20432;-56
2021/10/11 09:41:33;;;;;;;15.17;8.07;;;12.80;99.90;;;;;;5138114;28;20920;-57
2021/10/11 09:44:13;;;;;;;18.20;9.63;;;12.80;99.90;;;;;;5138013;28;20791;-62
2021/10/11 09:46:45;;;;;;;23.00;10.80;;;12.60;1.00;;;;;;5137745;28;20689;-62
2021/10/11 09:49:17;;;;;;;19.43;9.97;;;12.40;1.00;;;;;;5137711;28;20466;-63
2021/10/11 09:51:48;;;;;;;22.77;9.60;;;12.10;99.90;;;;;;5138488;28;20502;-62
2021/10/11 09:54:17;;;;;;;13.77;7.33;;;12.00;72.70;;;;;;5137876;28;20522;-62
2021/10/11 09:56:44;;;;;;;19.17;8.43;;;12.00;1.00;;;;;;5137623;28;20517;-61
2021/10/11 09:59:11;;;;;;;20.77;8.73;;;12.00;1.00;;;;;;5137595;28;20498;-62
2021/10/11 10:01:42;;;;;;;12.37;8.80;;;12.00;1.00;;;;;;5111390;28;21024;-62
2021/10/11 10:04:13;;;;;;;13.83;8.27;;;12.00;89.10;;;;;;5097523;28;20466;-64
2021/10/11 10:06:43;;;;;;;22.17;9.93;;;11.80;99.90;;;;;;5100569;28;20464;-63
2021/10/11 10:09:13;;;;;;;20.30;9.17;;;11.80;99.90;;;;;;5117982;27;20458;-64
2021/10/11 10:11:42;;;;;;;11.47;8.23;;;11.70;99.90;;;;;;5141588;27;20506;-63
2021/10/11 10:14:19;;;;;;;17.90;8.77;;;11.70;99.90;;;;;;5141552;27;20839;-62
2021/10/11 10:16:48;;;;;;;15.47;8.30;;;11.70;1.00;;;;;;5141360;27;20462;-62
2021/10/11 10:19:20;;;;;;;14.37;9.50;;;11.70;1.00;;;;;;5141563;27;20924;-63
2021/10/11 10:21:49;;;;;;;17.30;9.27;;;11.80;1.00;;;;;;5141446;27;20467;-62
2021/10/11 10:24:27;;;;;;;14.03;6.43;;;11.90;1.00;;;;;;5141142;27;20463;-62
2021/10/11 10:27:03;;;;;;;15.27;6.33;;;12.00;1.00;;;;;;5141254;27;20462;-62
2021/10/11 10:29:42;;;;;;;12.33;6.73;;;12.10;99.90;;;;;;5141566;27;20907;-62
2021/10/11 10:32:12;;;;;;;14.13;5.30;;;12.30;1.00;;;;;;5141455;27;20454;-62
2021/10/11 10:34:40;;;;;;;8.80;4.70;;;12.50;99.90;;;;;;5139240;27;20533;-62
2021/10/11 10:37:10;;;;;;;13.80;6.23;;;12.60;1.00;;;;;;5138829;27;20905;-61
2021/10/11 10:39:40;;;;;;;12.10;5.97;;;13.00;99.90;;;;;;5140694;27;20462;-61
2021/10/11 10:42:10;;;;;;;12.57;6.87;;;13.30;99.90;;;;;;5141151;27;20501;-62
2021/10/11 10:44:46;;;;;;;13.03;7.37;;;13.50;1.00;;;;;;5140770;27;20451;-62
2021/10/11 10:47:15;;;;;;;11.00;7.30;;;13.50;99.90;;;;;;5139334;27;20485;-61
2021/10/11 10:49:48;;;;;;;7.97;4.60;;;13.50;99.90;;;;;;5140891;27;20477;-61
2021/10/11 10:52:17;;;;;;;10.00;6.10;;;13.40;99.90;;;;;;5140856;27;20731;-61
2021/10/11 10:54:50;;;;;;;11.73;5.83;;;13.50;99.90;;;;;;5140544;27;20522;-61
2021/10/11 10:57:19;;;;;;;11.07;5.80;;;13.80;99.90;;;;;;5138479;27;20462;-60
2021/10/11 10:59:51;;;;;;;9.20;5.37;;;13.70;1.00;;;;;;5135401;27;20455;-60
2021/10/11 11:02:18;;;;;;;12.20;6.10;;;13.70;1.00;;;;;;5137336;27;20486;-60
2021/10/11 11:04:56;;;;;;;13.47;5.63;;;14.00;9.80;;;;;;5138517;27;20514;-60
2021/10/11 11:07:27;;;;;;;6.60;4.70;;;14.20;1.00;;;;;;5139902;27;20781;-59
2021/10/11 11:09:59;;;;;;;10.43;5.67;;;14.40;1.00;;;;;;5125194;27;20837;-59
2021/10/11 11:12:34;;;;;;;10.07;5.40;;;14.50;1.00;;;;;;5119882;28;20463;-57
2021/10/11 11:15:03;;;;;;;10.20;6.00;;;14.80;1.00;;;;;;5119671;28;20548;-59
2021/10/11 11:17:32;;;;;;;11.90;5.87;;;14.50;1.00;;;;;;5118653;28;20467;-55
2021/10/11 11:20:00;;;;;;;11.47;6.67;;;14.90;1.00;;;;;;5119775;28;20550;-57
2021/10/11 11:22:31;;;;;;;14.60;7.63;;;15.30;1.00;;;;;;5120666;27;20498;-58
2021/10/11 11:25:03;;;;;;;11.17;6.40;;;15.50;1.00;;;;;;5119587;28;20757;-57
2021/10/11 11:27:36;;;;;;;14.43;6.07;;;15.30;1.00;;;;;;5119857;27;20464;-51
2021/10/11 11:30:08;;;;;;;9.60;6.53;;;15.20;1.00;;;;;;5119969;28;20465;-53
2021/10/11 11:32:49;;;;;;;15.07;6.97;;;15.20;1.00;;;;;;5119336;28;20503;-56
2021/10/11 11:35:18;;;;;;;7.23;5.30;;;15.60;1.00;;;;;;5119458;28;20814;-49
2021/10/11 11:37:49;;;;;;;10.17;5.20;;;15.60;1.00;;;;;;5119749;28;20495;-51
2021/10/11 11:40:20;;;;;;;14.13;6.53;;;15.90;1.00;;;;;;5119158;28;20742;-53
2021/10/11 11:42:49;;;;;;;12.07;6.30;;;15.90;1.00;;;;;;5119176;28;20925;-51
2021/10/11 11:45:16;;;;;;;9.83;6.07;;;15.90;1.00;;;;;;5119224;28;20838;-54
2021/10/11 11:47:43;;;;;;;10.60;5.70;;;15.80;1.00;;;;;;5119245;28;20762;-50
2021/10/11 11:50:25;;;;;;;9.50;5.83;;;15.20;1.00;;;;;;5119285;28;20530;-52
2021/10/11 11:53:13;;;;;;;7.70;5.20;;;15.60;1.00;;;;;;5119259;28;20496;-51
2021/10/11 11:55:51;;;;;;;8.93;5.97;;;16.50;1.00;;;;;;5119151;28;20487;-51
2021/10/11 11:58:23;;;;;;;11.43;5.80;;;17.10;1.00;;;;;;5119059;28;20453;-52
2021/10/11 12:00:59;;;;;;;12.07;5.37;;;17.90;1.00;;;;;;5118419;28;20498;-49
2021/10/11 12:03:30;;;;;;;11.27;5.30;;;17.90;1.00;;;;;;5120581;27;20522;-47
2021/10/11 12:05:59;;;;;;;9.90;5.10;;;16.70;1.00;;;;;;5127514;27;20454;-47
2021/10/11 12:08:26;;;;;;;8.30;4.40;;;15.90;1.00;;;;;;5139009;27;20557;-55
2021/10/11 12:10:59;;;;;;;9.77;5.70;;;15.90;1.00;;;;;;5126554;27;20499;-52
2021/10/11 12:13:30;;;;;;;12.73;5.83;;;15.80;1.00;;;;;;5133887;27;20814;-48
2021/10/11 12:16:05;;;;;;;10.07;5.00;;;15.70;1.00;;;;;;5139057;27;20493;-47
2021/10/11 12:18:38;;;;;;;9.93;5.17;;;15.80;1.00;;;;;;5126991;27;20490;-51
2021/10/11 12:21:21;;;;;;;9.40;4.53;;;16.30;1.00;;;;;;5113687;27;20483;-48
2021/10/11 12:23:48;;;;;;;8.20;4.10;;;16.60;1.00;;;;;;5118680;27;20452;-47
2021/10/11 12:26:21;;;;;;;8.47;4.57;;;17.40;1.00;;;;;;5122715;27;20494;-49
2021/10/11 12:28:53;;;;;;;11.50;4.20;;;17.50;99.90;;;;;;5136781;27;20501;-49
2021/10/11 12:31:25;;;;;;;6.50;4.17;;;16.90;99.90;;;;;;5138808;27;20494;-50
2021/10/11 12:33:53;;;;;;;4.90;3.87;;;17.30;99.90;;;;;;5139026;27;20459;-47
2021/10/11 12:36:21;;;;;;;8.07;3.63;;;17.00;99.90;;;;;;5138304;27;20498;-47
2021/10/11 12:38:48;;;;;;;6.90;4.17;;;16.70;99.90;;;;;;5138786;27;20462;-47
2021/10/11 12:41:18;;;;;;;6.77;4.17;;;16.40;99.90;;;;;;5138815;27;20875;-51
2021/10/11 12:43:57;;;;;;;11.10;5.90;;;16.40;1.00;;;;;;5129931;27;20554;-49
2021/10/11 12:46:25;;;;;;;8.13;4.43;;;16.40;99.90;;;;;;5117820;28;20463;-47